Terminal Aerodrome Forecast
Issued by NWS

Home | Current Version | Previous Version | Text Only | Print | Product List | Glossary On
Versions: 1 2 3 4 5 6 7 8 9 10 11 12
000
FTAK31 PANC 230524
TAFAHO
TAF
PAHO 230524Z 2306/2406 08004KT P6SM VCSH BKN070
     FM231400 08012KT P6SM BKN050
     FM231700 09014G20KT 3SM -SN OVC030
     FM232200 24008KT 5SM -SN SCT030 BKN045
     FM240100 22005KT P6SM SCT045 BKN070=

USA.gov is the U.S. government's official web portal to all federal, state and local government web resources and services.